Time;durP1;ratioP1;P1;durP2;ratioP2;P2;SDS_P1;SDS_P2;PMS_P1;PMS_P2;Temp;Humidity;BMP_temperature;BMP_pressure;BME280_temperature;BME280_humidity;BME280_pressure;Samples;Min_cycle;Max_cycle;Signal;HPM_P1;HPM_P2
2021/12/26 00:00:08;;;;;;;4.47;3.33;;;;;;;-2.63;69.86;100786.09;5030863;28;20033;-70
2021/12/26 00:02:55;;;;;;;5.82;3.47;;;;;;;-2.64;69.84;100786.97;5031101;28;20514;-70
2021/12/26 00:05:26;;;;;;;4.55;3.05;;;;;;;-2.65;69.63;100793.06;5029708;28;20124;-70
2021/12/26 00:07:52;;;;;;;6.75;3.83;;;;;;;-2.68;69.46;100781.84;5030464;28;20139;-70
2021/12/26 00:10:21;;;;;;;3.33;2.80;;;;;;;-2.69;69.73;100786.22;5029332;28;20512;-70
2021/12/26 00:12:48;;;;;;;6.82;3.10;;;;;;;-2.70;69.38;100781.88;5030557;28;20415;-70
2021/12/26 00:15:14;;;;;;;4.80;3.17;;;;;;;-2.71;69.38;100780.19;5030613;28;20476;-70
2021/12/26 00:17:40;;;;;;;4.32;3.17;;;;;;;-2.74;69.61;100782.88;5043755;28;20028;-69
2021/12/26 00:20:07;;;;;;;4.18;2.97;;;;;;;-2.74;69.59;100779.41;5050188;28;20379;-69
2021/12/26 00:22:34;;;;;;;4.45;3.03;;;;;;;-2.76;69.52;100775.97;5039144;28;20079;-70
2021/12/26 00:25:02;;;;;;;5.25;3.70;;;;;;;-2.77;70.00;100766.50;5050668;28;20041;-70
2021/12/26 00:27:28;;;;;;;3.65;3.15;;;;;;;-2.77;69.93;100761.28;5041888;28;20431;-70
2021/12/26 00:29:53;;;;;;;4.32;3.15;;;;;;;-2.79;69.83;100763.91;5038676;28;20031;-70
2021/12/26 00:32:19;;;;;;;5.22;3.40;;;;;;;-2.82;70.09;100758.78;5050077;28;20036;-70
2021/12/26 00:34:45;;;;;;;4.72;3.22;;;;;;;-2.84;70.39;100766.63;5040617;28;20301;-69
2021/12/26 00:37:11;;;;;;;4.20;3.00;;;;;;;-2.84;70.12;100760.56;5050451;28;20021;-69
2021/12/26 00:39:37;;;;;;;5.47;3.08;;;;;;;-2.84;70.00;100757.97;5039053;28;20030;-69
2021/12/26 00:42:04;;;;;;;6.07;3.72;;;;;;;-2.86;70.38;100760.59;5050155;28;20578;-69
2021/12/26 00:44:32;;;;;;;4.90;3.10;;;;;;;-2.87;70.62;100756.28;5048702;28;20036;-69
2021/12/26 00:46:58;;;;;;;5.82;3.95;;;;;;;-2.87;70.73;100758.88;5063317;28;20033;-69
2021/12/26 00:49:24;;;;;;;5.25;3.42;;;;;;;-2.87;70.36;100758.03;5036914;28;20101;-69
2021/12/26 00:51:50;;;;;;;5.28;3.50;;;;;;;-2.87;70.95;100760.63;5054058;28;20032;-69
2021/12/26 00:54:16;;;;;;;4.45;3.00;;;;;;;-2.88;70.32;100759.78;5057710;28;20025;-69
2021/12/26 00:56:42;;;;;;;5.20;3.58;;;;;;;-2.88;70.90;100761.50;5050799;28;20036;-69
2021/12/26 00:59:08;;;;;;;4.63;3.50;;;;;;;-2.88;70.53;100765.00;5053985;28;20041;-69
2021/12/26 01:01:42;;;;;;;4.50;3.60;;;;;;;-2.88;70.56;100767.59;5041052;28;20033;-69
2021/12/26 01:04:11;;;;;;;5.22;3.22;;;;;;;-2.89;70.63;100771.06;5040015;28;20071;-69
2021/12/26 01:06:48;;;;;;;5.95;3.35;;;;;;;-2.88;71.02;100766.72;5052517;28;20048;-69
2021/12/26 01:09:20;;;;;;;7.60;3.67;;;;;;;-2.89;70.83;100771.06;5038262;28;20033;-69
2021/12/26 01:11:51;;;;;;;6.78;3.33;;;;;;;-2.87;70.76;100765.84;5050853;28;20112;-69
2021/12/26 01:14:25;;;;;;;6.97;3.63;;;;;;;-2.87;70.81;100769.28;5042247;28;20267;-69
2021/12/26 01:17:00;;;;;;;5.38;3.20;;;;;;;-2.85;71.01;100766.66;5052515;28;20026;-69
2021/12/26 01:19:32;;;;;;;4.75;3.28;;;;;;;-2.84;70.86;100758.81;5056071;28;20036;-69
2021/12/26 01:21:58;;;;;;;5.88;3.50;;;;;;;-2.83;70.54;100755.34;5060142;28;20078;-68
2021/12/26 01:24:24;;;;;;;4.20;3.33;;;;;;;-2.81;70.36;100763.94;5042513;28;20107;-69
2021/12/26 01:26:50;;;;;;;6.45;3.88;;;;;;;-2.81;70.75;100761.34;5053161;28;20454;-68
2021/12/26 01:29:15;;;;;;;4.88;3.50;;;;;;;-2.79;70.97;100756.13;5050131;28;20038;-68
2021/12/26 01:31:41;;;;;;;5.32;3.83;;;;;;;-2.76;70.71;100760.38;5051039;28;20029;-68
2021/12/26 01:34:07;;;;;;;7.05;3.40;;;;;;;-2.73;70.49;100755.13;5052598;28;20032;-68
2021/12/26 01:36:34;;;;;;;6.65;3.60;;;;;;;-2.73;70.87;100747.31;5052819;28;20041;-68
2021/12/26 01:39:07;;;;;;;5.68;3.60;;;;;;;-2.73;71.08;100745.59;5044442;28;20064;-69
2021/12/26 01:41:38;;;;;;;5.45;3.78;;;;;;;-2.71;70.85;100746.41;5039243;28;20036;-68
2021/12/26 01:44:10;;;;;;;6.80;3.55;;;;;;;-2.70;70.83;100750.69;5052874;28;20056;-69
2021/12/26 01:46:49;;;;;;;;;;;;;;;;;;;;;
2021/12/26 01:49:19;;;;;;;;;;;;;;;-2.60;71.86;100751.34;5049606;28;20051;-68
2021/12/26 01:51:46;;;;;;;;;;;;;;;-2.59;72.04;100752.22;5039172;28;19909;-68
2021/12/26 01:54:16;;;;;;;5.75;3.53;;;;;;;-2.64;70.94;100750.56;5050906;28;19963;-69
2021/12/26 01:56:42;;;;;;;5.82;3.58;;;;;;;-2.61;70.77;100749.66;5047685;28;20025;-68
2021/12/26 01:59:11;;;;;;;4.28;3.38;;;;;;;-2.62;70.94;100751.38;5050710;28;20029;-71
2021/12/26 02:01:40;;;;;;;4.35;3.70;;;;;;;-2.59;72.00;100757.41;5039756;28;20040;-68
2021/12/26 02:04:06;;;;;;;6.47;3.70;;;;;;;-2.60;70.97;100748.75;5052266;28;20021;-68
2021/12/26 02:06:32;;;;;;;7.05;4.00;;;;;;;-2.58;71.03;100744.38;5049667;28;20048;-69
2021/12/26 02:09:00;;;;;;;5.43;3.70;;;;;;;-2.55;70.79;100738.22;5050146;28;20024;-69
2021/12/26 02:11:25;;;;;;;11.13;4.30;;;;;;;-2.55;70.84;100743.44;5052252;28;20032;-68
2021/12/26 02:13:51;;;;;;;5.07;3.55;;;;;;;-2.54;71.32;100740.81;5050149;28;20483;-68
2021/12/26 02:16:17;;;;;;;4.68;3.90;;;;;;;-2.53;71.47;100742.53;5051960;28;20040;-69
2021/12/26 02:18:42;;;;;;;4.55;3.53;;;;;;;-2.51;71.41;100745.09;5066210;28;20033;-69
2021/12/26 02:24:09;;;;;;;6.22;4.18;;;;;;;-2.47;71.73;100738.91;5047015;28;20149;-68
2021/12/26 02:29:26;;;;;;;5.35;4.10;;;;;;;-2.43;71.17;100736.19;5041232;28;20114;-67
2021/12/26 02:31:54;;;;;;;5.72;3.78;;;;;;;-2.42;71.56;100729.25;5051943;28;20029;-67
2021/12/26 02:34:21;;;;;;;5.85;3.88;;;;;;;-2.42;70.75;100726.63;5049690;28;20589;-67
2021/12/26 02:36:46;;;;;;;8.95;4.30;;;;;;;-2.40;71.45;100724.00;5059148;28;20049;-67
2021/12/26 02:39:12;;;;;;;7.75;4.22;;;;;;;-2.38;72.00;100722.22;5047461;28;20032;-66
2021/12/26 02:41:38;;;;;;;5.68;4.03;;;;;;;-2.37;70.93;100727.38;5050376;28;20114;-66
2021/12/26 02:44:07;;;;;;;7.00;4.10;;;;;;;-2.37;70.88;100724.78;5051606;28;20112;-67
2021/12/26 02:46:36;;;;;;;6.07;4.03;;;;;;;-2.35;71.41;100724.75;5037072;28;20561;-67
2021/12/26 02:49:04;;;;;;;7.13;4.20;;;;;;;-2.34;71.21;100722.09;5051398;28;20106;-68
2021/12/26 02:51:30;;;;;;;4.78;3.70;;;;;;;-2.33;71.04;100718.63;5051362;28;20499;-67
2021/12/26 02:53:55;;;;;;;5.15;4.07;;;;;;;-2.33;70.68;100717.75;5049439;28;20063;-68
2021/12/26 02:56:21;;;;;;;5.88;4.30;;;;;;;-2.32;70.64;100719.47;5050333;28;20033;-67
2021/12/26 02:58:55;;;;;;;7.40;4.00;;;;;;;-2.30;71.34;100722.88;5051336;28;20029;-67
2021/12/26 03:01:25;;;;;;;6.80;3.92;;;;;;;-2.30;70.98;100722.88;5051050;28;20028;-67
2021/12/26 03:03:51;;;;;;;6.05;4.38;;;;;;;-2.31;70.86;100719.44;5049909;28;20033;-67
2021/12/26 03:06:35;;;;;;;9.65;4.07;;;;;;;-2.30;71.21;100717.66;5043498;28;20094;-67
2021/12/26 03:09:01;;;;;;;5.00;4.05;;;;;;;-2.29;70.88;100722.00;5052645;28;20418;-67
2021/12/26 03:11:32;;;;;;;5.78;3.80;;;;;;;-2.28;71.10;100719.34;5042622;28;20028;-67
2021/12/26 03:13:57;;;;;;;10.38;4.40;;;;;;;-2.27;70.66;100721.03;5049680;28;20080;-67
2021/12/26 03:16:23;;;;;;;5.28;4.20;;;;;;;-2.28;70.33;100718.47;5050848;28;20029;-67
2021/12/26 03:18:49;;;;;;;5.30;3.75;;;;;;;-2.29;71.04;100714.19;5049057;28;20107;-67
2021/12/26 03:21:14;;;;;;;5.25;4.15;;;;;;;-2.29;71.08;100707.22;5049157;28;20039;-68
2021/12/26 03:23:40;;;;;;;6.10;4.05;;;;;;;-2.29;70.14;100696.81;5051093;28;20033;-67
2021/12/26 03:26:07;;;;;;;6.45;3.95;;;;;;;-2.30;70.44;100696.84;5043037;28;20021;-67
2021/12/26 03:28:33;;;;;;;5.63;4.40;;;;;;;-2.32;70.67;100694.28;5049704;28;20475;-67
2021/12/26 03:30:59;;;;;;;6.55;4.35;;;;;;;-2.34;70.84;100692.66;5049836;28;20028;-67
2021/12/26 03:33:25;;;;;;;6.22;4.20;;;;;;;-2.36;70.37;100697.03;5050629;28;20078;-67
2021/12/26 03:35:51;;;;;;;4.90;3.90;;;;;;;-2.38;70.59;100691.00;5050710;28;20491;-67
2021/12/26 03:38:17;;;;;;;5.30;3.95;;;;;;;-2.42;70.66;100692.81;5050990;28;20082;-67
2021/12/26 03:40:44;;;;;;;5.32;4.10;;;;;;;-2.44;71.02;100694.63;5043979;28;20033;-67
2021/12/26 03:43:10;;;;;;;6.10;4.25;;;;;;;-2.46;70.91;100691.22;5049198;28;20083;-67
2021/12/26 03:45:37;;;;;;;7.00;4.25;;;;;;;-2.47;70.99;100703.34;5050879;28;20033;-67
2021/12/26 03:48:03;;;;;;;6.60;4.30;;;;;;;-2.49;71.60;100705.13;5050117;28;20108;-68
2021/12/26 03:50:30;;;;;;;5.60;4.07;;;;;;;-2.49;70.93;100701.69;5045819;28;20078;-67
2021/12/26 03:52:57;;;;;;;6.05;4.05;;;;;;;-2.51;71.08;100701.72;5057009;28;20025;-67
2021/12/26 03:55:26;;;;;;;5.63;3.90;;;;;;;-2.52;71.10;100702.59;5047209;28;20068;-67
2021/12/26 03:57:52;;;;;;;7.30;4.45;;;;;;;-2.55;71.27;100691.44;5044080;28;20029;-67
2021/12/26 04:00:19;;;;;;;6.63;4.38;;;;;;;-2.56;70.89;100698.38;5050206;28;20025;-67
2021/12/26 04:02:45;;;;;;;6.47;4.55;;;;;;;-2.61;70.62;100693.28;5044746;28;20036;-67
2021/12/26 04:05:13;;;;;;;9.45;4.63;;;;;;;-2.62;71.00;100695.94;5050246;28;20025;-67
2021/12/26 04:07:39;;;;;;;5.82;4.10;;;;;;;-2.64;71.15;100689.91;5050442;28;20582;-67
2021/12/26 04:10:05;;;;;;;5.53;4.13;;;;;;;-2.65;71.42;100693.41;5064632;28;20039;-67
2021/12/26 04:12:36;;;;;;;5.25;4.65;;;;;;;-2.68;71.80;100693.47;5042017;28;20029;-67
2021/12/26 04:15:08;;;;;;;6.57;4.35;;;;;;;-2.70;71.87;100690.91;5064209;28;20021;-67
2021/12/26 04:17:35;;;;;;;7.05;4.63;;;;;;;-2.70;71.90;100687.47;5050293;28;20029;-67
2021/12/26 04:20:01;;;;;;;5.07;4.03;;;;;;;-2.72;71.90;100684.03;5047026;28;20049;-67
2021/12/26 04:22:27;;;;;;;6.82;3.92;;;;;;;-2.73;71.11;100685.81;5051523;28;20040;-67
2021/12/26 04:24:52;;;;;;;5.60;4.05;;;;;;;-2.78;70.86;100687.66;5060378;28;20025;-67
2021/12/26 04:27:18;;;;;;;5.80;4.13;;;;;;;-2.82;71.17;100688.59;5068320;28;20029;-67
2021/12/26 04:29:44;;;;;;;8.50;4.07;;;;;;;-2.88;71.23;100689.63;5042051;28;20025;-66
2021/12/26 04:32:09;;;;;;;6.38;3.95;;;;;;;-2.89;71.05;100697.44;5044283;28;20492;-66
2021/12/26 04:34:35;;;;;;;7.28;3.67;;;;;;;-2.92;71.31;100693.16;5053877;28;20059;-67
2021/12/26 04:37:01;;;;;;;4.28;3.50;;;;;;;-2.92;71.64;100687.13;5050325;28;20029;-66
2021/12/26 04:39:27;;;;;;;6.22;4.03;;;;;;;-2.94;71.50;100681.13;5050430;28;20032;-66
2021/12/26 04:41:52;;;;;;;8.02;4.00;;;;;;;-2.98;71.52;100677.75;5054468;28;20086;-66
2021/12/26 04:44:18;;;;;;;5.45;4.00;;;;;;;-3.01;71.73;100677.81;5054272;28;20067;-67
2021/12/26 04:46:44;;;;;;;7.20;4.35;;;;;;;-3.02;71.86;100682.13;5051079;28;20037;-66
2021/12/26 04:49:10;;;;;;;6.35;4.43;;;;;;;-3.03;71.58;100679.56;5054467;28;20021;-67
2021/12/26 04:51:35;;;;;;;7.00;4.25;;;;;;;-3.08;71.59;100671.91;5047353;28;20037;-66
2021/12/26 04:54:01;;;;;;;6.50;4.20;;;;;;;-3.08;72.15;100671.03;5054053;28;20547;-68
2021/12/26 04:56:26;;;;;;;4.78;3.50;;;;;;;-3.09;72.16;100675.38;5053350;28;20021;-68
2021/12/26 04:58:52;;;;;;;5.28;4.20;;;;;;;-3.11;71.86;100678.88;5051953;28;20033;-67
2021/12/26 05:01:17;;;;;;;7.72;3.80;;;;;;;-3.13;71.87;100678.94;5046713;28;20052;-67
2021/12/26 05:03:43;;;;;;;7.82;4.25;;;;;;;-3.14;72.22;100674.63;5039455;28;20044;-68
2021/12/26 05:06:09;;;;;;;6.80;4.40;;;;;;;-3.17;72.20;100672.94;5054774;28;20017;-68
2021/12/26 05:08:34;;;;;;;6.10;4.22;;;;;;;-3.18;72.18;100671.25;5056128;28;20081;-68
2021/12/26 05:11:00;;;;;;;5.53;4.43;;;;;;;-3.18;72.64;100662.56;5053800;28;20448;-68
2021/12/26 05:13:25;;;;;;;5.28;4.25;;;;;;;-3.19;72.49;100664.31;5043547;28;20029;-68
2021/12/26 05:15:51;;;;;;;8.25;4.30;;;;;;;-3.19;72.82;100660.88;5063763;28;20506;-68
2021/12/26 05:18:17;;;;;;;6.63;4.25;;;;;;;-3.21;72.23;100658.31;5042293;28;20029;-67
2021/12/26 05:20:44;;;;;;;6.13;4.38;;;;;;;-3.23;72.43;100657.50;5066329;28;20012;-68
2021/12/26 05:23:09;;;;;;;9.00;5.35;;;;;;;-3.22;72.81;100663.56;5042409;28;20033;-67
2021/12/26 05:25:35;;;;;;;5.18;3.85;;;;;;;-3.25;73.04;100656.66;5053574;28;20021;-67
2021/12/26 05:28:01;;;;;;;6.20;4.28;;;;;;;-3.28;72.86;100654.16;5070545;28;20025;-68
2021/12/26 05:30:27;;;;;;;6.43;4.40;;;;;;;-3.28;72.99;100663.69;5056325;28;20033;-67
2021/12/26 05:32:52;;;;;;;6.03;4.30;;;;;;;-3.30;73.22;100655.91;5050052;28;20028;-67
2021/12/26 05:35:18;;;;;;;5.30;4.20;;;;;;;-3.29;73.20;100654.19;5052875;28;20398;-67
2021/12/26 05:37:45;;;;;;;4.40;3.75;;;;;;;-3.31;73.00;100654.22;5052732;28;20042;-67
2021/12/26 05:40:12;;;;;;;6.65;4.40;;;;;;;-3.33;73.41;100652.53;5051604;28;20422;-68
2021/12/26 05:42:38;;;;;;;9.43;4.57;;;;;;;-3.35;73.75;100645.66;5053009;28;20075;-67
2021/12/26 05:45:05;;;;;;;4.40;3.92;;;;;;;-3.36;73.45;100650.88;5053617;28;20033;-68
2021/12/26 05:47:32;;;;;;;5.40;3.97;;;;;;;-3.37;73.59;100643.97;5045233;28;20069;-67
2021/12/26 05:49:59;;;;;;;5.65;4.05;;;;;;;-3.40;73.57;100642.31;5053583;28;20395;-68
2021/12/26 05:52:25;;;;;;;5.50;4.15;;;;;;;-3.41;73.51;100637.16;5061114;28;20032;-68
2021/12/26 05:54:50;;;;;;;7.78;4.75;;;;;;;-3.42;73.92;100638.03;5060004;28;20047;-67
2021/12/26 05:57:17;;;;;;;7.45;4.22;;;;;;;-3.43;73.74;100633.72;5041906;28;20041;-67
2021/12/26 05:59:43;;;;;;;5.30;3.90;;;;;;;-3.44;73.88;100637.22;5053356;28;20071;-67
2021/12/26 06:02:10;;;;;;;5.80;4.50;;;;;;;-3.45;73.77;100627.69;5052163;28;20021;-68
2021/12/26 06:04:35;;;;;;;6.90;4.35;;;;;;;-3.48;73.89;100627.75;5047138;28;20029;-68
2021/12/26 06:07:02;;;;;;;4.97;4.25;;;;;;;-3.49;73.53;100626.06;5052969;28;20106;-68
2021/12/26 06:09:28;;;;;;;4.60;4.10;;;;;;;-3.51;74.08;100631.31;5053766;28;20491;-68
2021/12/26 06:11:53;;;;;;;6.57;4.32;;;;;;;-3.53;73.95;100627.84;5053104;28;20048;-68
2021/12/26 06:14:19;;;;;;;7.15;4.80;;;;;;;-3.55;74.46;100630.53;5056238;28;20033;-68
2021/12/26 06:16:44;;;;;;;6.07;4.55;;;;;;;-3.55;73.90;100629.66;5058699;28;20055;-67
2021/12/26 06:19:10;;;;;;;7.63;4.63;;;;;;;-3.57;73.93;100621.88;5052543;28;20044;-67
2021/12/26 06:21:35;;;;;;;5.20;4.18;;;;;;;-3.57;74.18;100631.44;5054097;28;20499;-68
2021/12/26 06:24:01;;;;;;;5.80;4.03;;;;;;;-3.58;74.27;100632.31;5053897;28;20029;-67
2021/12/26 06:26:28;;;;;;;7.93;4.40;;;;;;;-3.60;74.48;100621.94;5041933;28;20395;-67
2021/12/26 06:28:54;;;;;;;6.68;4.50;;;;;;;-3.59;74.36;100634.06;5052980;28;20078;-67
2021/12/26 06:31:20;;;;;;;6.30;4.55;;;;;;;-3.60;74.34;100637.53;5048823;28;20025;-67
2021/12/26 06:33:46;;;;;;;6.75;4.28;;;;;;;-3.59;74.43;100633.22;5042745;28;20028;-67
2021/12/26 06:36:13;;;;;;;8.02;4.57;;;;;;;-3.61;74.72;100637.59;5066616;28;20045;-67
2021/12/26 06:38:40;;;;;;;5.13;4.10;;;;;;;-3.63;74.23;100640.22;5048376;28;20344;-67
2021/12/26 06:41:06;;;;;;;7.78;4.40;;;;;;;-3.63;74.41;100637.63;5052969;28;20033;-67
2021/12/26 06:43:33;;;;;;;5.30;4.07;;;;;;;-3.63;74.46;100636.75;5050253;28;20445;-67
2021/12/26 06:45:59;;;;;;;7.30;4.93;;;;;;;-3.64;74.41;100645.44;5043754;28;20025;-67
2021/12/26 06:48:25;;;;;;;7.65;4.80;;;;;;;-3.65;74.36;100649.75;5049181;28;20401;-67
2021/12/26 06:50:52;;;;;;;6.07;4.80;;;;;;;-3.66;74.98;100653.25;5033420;28;20109;-67
2021/12/26 06:53:18;;;;;;;6.80;4.40;;;;;;;-3.66;74.60;100647.19;5033441;28;20466;-67
2021/12/26 06:55:45;;;;;;;6.18;4.80;;;;;;;-3.69;74.52;100637.75;5032640;28;20456;-67
2021/12/26 06:58:12;;;;;;;6.63;4.70;;;;;;;-3.67;74.57;100641.16;5033642;28;20030;-67
2021/12/26 07:00:38;;;;;;;7.90;4.97;;;;;;;-3.67;75.15;100640.31;5033447;28;20492;-67
2021/12/26 07:03:04;;;;;;;7.82;4.85;;;;;;;-3.68;74.99;100630.78;5033713;28;20060;-67
2021/12/26 07:05:30;;;;;;;6.72;4.97;;;;;;;-3.69;74.77;100627.34;5038152;28;20029;-67
2021/12/26 07:07:55;;;;;;;8.60;5.18;;;;;;;-3.69;74.73;100624.75;5051412;28;20037;-67
2021/12/26 07:10:21;;;;;;;7.47;4.90;;;;;;;-3.71;75.03;100631.72;5050880;28;20028;-67
2021/12/26 07:12:47;;;;;;;7.03;4.90;;;;;;;-3.73;75.14;100631.75;5053905;28;20032;-67
2021/12/26 07:15:14;;;;;;;6.68;5.10;;;;;;;-3.73;75.28;100639.53;5068715;28;20021;-67
2021/12/26 07:17:41;;;;;;;6.65;4.70;;;;;;;-3.73;75.82;100641.25;5053913;28;20025;-67
2021/12/26 07:20:08;;;;;;;5.18;4.30;;;;;;;-3.73;75.10;100636.94;5038883;28;20539;-67
2021/12/26 07:22:35;;;;;;;8.40;5.22;;;;;;;-3.72;75.57;100633.44;5038604;28;20025;-68
2021/12/26 07:25:01;;;;;;;8.40;5.30;;;;;;;-3.73;75.28;100636.06;5051921;28;20067;-66
2021/12/26 07:27:26;;;;;;;6.75;4.70;;;;;;;-3.73;75.37;100633.47;5053440;28;20429;-66
2021/12/26 07:29:52;;;;;;;6.03;4.57;;;;;;;-3.73;75.31;100636.94;5041526;28;20123;-67
2021/12/26 07:32:18;;;;;;;9.30;4.80;;;;;;;-3.73;75.30;100630.88;5052058;28;20066;-66
2021/12/26 07:34:43;;;;;;;7.82;5.47;;;;;;;-3.75;75.66;100628.34;5037539;28;20438;-68
2021/12/26 07:37:09;;;;;;;9.63;5.45;;;;;;;-3.75;75.48;100628.34;5037000;28;20487;-68
2021/12/26 07:39:36;;;;;;;7.05;5.00;;;;;;;-3.76;76.23;100630.97;5036597;28;20097;-67
2021/12/26 07:42:03;;;;;;;7.13;5.75;;;;;;;-3.77;76.05;100630.09;5038429;28;20433;-67
2021/12/26 07:44:29;;;;;;;8.23;5.72;;;;;;;-3.76;75.97;100625.78;5044065;28;20483;-67
2021/12/26 07:46:54;;;;;;;8.15;5.13;;;;;;;-3.76;75.51;100623.19;5053575;28;20051;-67
2021/12/26 07:49:22;;;;;;;6.32;5.40;;;;;;;-3.77;75.94;100634.44;5039288;28;20036;-67
2021/12/26 07:51:49;;;;;;;9.43;5.70;;;;;;;-3.76;76.42;100628.38;5039776;28;20376;-67
2021/12/26 07:54:15;;;;;;;8.45;5.15;;;;;;;-3.76;76.24;100626.63;5038914;28;20038;-68
2021/12/26 07:56:41;;;;;;;8.95;5.55;;;;;;;-3.75;76.74;100637.84;5046475;28;20025;-67
2021/12/26 07:59:07;;;;;;;11.55;8.43;;;;;;;-3.74;76.52;100640.41;5042854;28;20044;-67
2021/12/26 08:01:33;;;;;;;9.68;6.43;;;;;;;-3.72;76.53;100643.00;5051500;28;20025;-67
2021/12/26 08:04:02;;;;;;;11.10;6.07;;;;;;;-3.70;76.23;100642.97;5052868;28;20072;-66
2021/12/26 08:06:30;;;;;;;7.90;5.35;;;;;;;-3.72;76.41;100643.84;5054683;28;20036;-67
2021/12/26 08:08:56;;;;;;;8.07;5.57;;;;;;;-3.70;76.71;100650.75;5042625;28;20037;-67
2021/12/26 08:11:22;;;;;;;9.82;6.07;;;;;;;-3.69;76.90;100640.34;5046941;28;20033;-67
2021/12/26 08:13:47;;;;;;;9.30;5.85;;;;;;;-3.67;77.06;100632.50;5051693;28;20041;-67
2021/12/26 08:16:14;;;;;;;7.32;5.75;;;;;;;-3.67;77.33;100641.16;5050100;28;20022;-67
2021/12/26 08:18:44;;;;;;;9.07;5.72;;;;;;;-3.64;77.23;100646.28;5047877;28;20120;-68
2021/12/26 08:21:09;;;;;;;10.73;6.10;;;;;;;-3.60;77.74;100650.50;5057874;28;20040;-69
2021/12/26 08:23:36;;;;;;;9.40;6.15;;;;;;;-3.56;77.20;100646.97;5058135;28;20029;-68
2021/12/26 08:26:02;;;;;;;8.18;6.50;;;;;;;-3.54;77.28;100646.94;5051979;28;20072;-67
2021/12/26 08:28:28;;;;;;;9.38;6.20;;;;;;;-3.50;77.74;100642.53;5043191;28;20029;-68
2021/12/26 08:30:54;;;;;;;14.63;6.45;;;;;;;-3.46;78.13;100646.78;5037760;28;20044;-68
2021/12/26 08:33:19;;;;;;;6.95;5.75;;;;;;;-3.42;77.81;100646.66;5041541;28;20033;-69
2021/12/26 08:35:47;;;;;;;9.18;6.75;;;;;;;-3.38;77.81;100643.13;5046778;28;20041;-68
2021/12/26 08:38:15;;;;;;;9.23;5.78;;;;;;;-3.33;77.98;100643.03;5038472;28;20480;-68
2021/12/26 08:40:42;;;;;;;8.90;6.05;;;;;;;-3.27;77.74;100635.06;5037948;28;20037;-68
2021/12/26 08:43:08;;;;;;;10.15;6.43;;;;;;;-3.24;77.55;100629.81;5052005;28;20025;-68
2021/12/26 08:45:34;;;;;;;9.95;6.05;;;;;;;-3.18;77.61;100629.69;5038287;28;20379;-68
2021/12/26 08:48:00;;;;;;;9.95;6.10;;;;;;;-3.13;77.78;100631.31;5048949;28;20523;-68
2021/12/26 08:50:27;;;;;;;9.88;6.03;;;;;;;-3.09;77.97;100631.22;5042424;28;20503;-68
2021/12/26 08:52:54;;;;;;;11.50;6.15;;;;;;;-3.05;77.95;100632.84;5038445;28;20021;-68
2021/12/26 08:55:21;;;;;;;9.85;6.38;;;;;;;-2.99;78.35;100634.44;5041309;28;20064;-68
2021/12/26 08:57:47;;;;;;;11.18;5.93;;;;;;;-2.96;78.32;100631.78;5040184;28;20095;-68
2021/12/26 09:00:15;;;;;;;11.82;6.63;;;;;;;-2.90;78.88;100633.34;5045584;28;20075;-68
2021/12/26 09:02:40;;;;;;;10.95;6.70;;;;;;;-2.85;78.18;100631.50;5044122;28;20071;-68
2021/12/26 09:05:07;;;;;;;9.73;5.93;;;;;;;-2.80;78.06;100630.50;5041417;28;20041;-68
2021/12/26 09:07:33;;;;;;;13.02;7.20;;;;;;;-2.74;77.85;100615.66;5040958;28;20494;-67
2021/12/26 09:10:01;;;;;;;13.50;7.07;;;;;;;-2.68;78.22;100612.88;5038703;28;20038;-67
2021/12/26 09:12:27;;;;;;;9.43;6.65;;;;;;;-2.64;78.41;100617.13;5050598;28;20036;-68
2021/12/26 09:14:54;;;;;;;12.57;9.75;;;;;;;-2.58;78.08;100624.78;5038522;28;20037;-67
2021/12/26 09:17:20;;;;;;;10.82;6.50;;;;;;;-2.53;77.68;100609.03;5043181;28;20028;-67
2021/12/26 09:19:46;;;;;;;11.88;6.25;;;;;;;-2.48;77.46;100612.34;5043216;28;20045;-68
2021/12/26 09:22:17;;;;;;;10.90;6.75;;;;;;;-2.45;78.35;100617.47;5048321;28;20021;-69
2021/12/26 09:24:45;;;;;;;8.52;6.45;;;;;;;-2.39;77.88;100629.50;5040888;28;20377;-68
2021/12/26 09:27:12;;;;;;;9.45;6.63;;;;;;;-2.35;78.24;100626.75;5047773;28;20021;-67
2021/12/26 09:29:38;;;;;;;9.65;6.28;;;;;;;-2.31;77.79;100625.78;5061652;28;20056;-67
2021/12/26 09:32:04;;;;;;;9.05;6.05;;;;;;;-2.25;77.70;100622.16;5040989;28;20091;-68
2021/12/26 09:34:33;;;;;;;10.25;6.63;;;;;;;-2.21;78.03;100625.50;5055143;28;20503;-68
2021/12/26 09:37:00;;;;;;;9.43;6.57;;;;;;;-2.16;78.12;100623.66;5048938;28;20068;-68
2021/12/26 09:39:25;;;;;;;12.77;6.35;;;;;;;-2.12;77.93;100622.69;5052073;28;20103;-66
2021/12/26 09:41:52;;;;;;;9.95;6.28;;;;;;;-2.08;77.90;100632.97;5061853;28;20028;-69
2021/12/26 09:44:18;;;;;;;9.52;6.07;;;;;;;-2.01;78.07;100633.66;5044206;28;20094;-67
2021/12/26 09:46:45;;;;;;;8.70;6.35;;;;;;;-1.97;77.96;100630.03;5037617;28;20040;-67
2021/12/26 09:49:11;;;;;;;12.77;7.40;;;;;;;-1.91;78.19;100642.06;5043141;28;20029;-69
2021/12/26 09:51:37;;;;;;;11.02;7.45;;;;;;;-1.86;78.91;100635.81;5048272;28;20036;-67
2021/12/26 09:54:05;;;;;;;12.90;7.00;;;;;;;-1.83;78.39;100623.59;5011257;28;20037;-69
2021/12/26 09:56:31;;;;;;;12.90;7.70;;;;;;;-1.76;78.26;100626.00;5046916;28;20044;-69
2021/12/26 09:59:05;;;;;;;9.85;6.97;;;;;;;-1.70;78.18;100622.34;5046628;28;20034;-69
2021/12/26 10:01:36;;;;;;;10.50;7.43;;;;;;;-1.67;78.23;100614.44;5047492;28;20408;-68
2021/12/26 10:04:14;;;;;;;13.48;7.45;;;;;;;-1.62;77.94;100615.16;5036358;28;20032;-68
2021/12/26 10:06:39;;;;;;;12.02;7.07;;;;;;;-1.56;77.79;100614.13;5042940;28;20026;-69
2021/12/26 10:09:08;;;;;;;12.75;7.60;;;;;;;-1.51;77.87;100599.22;5049782;28;20429;-69
2021/12/26 10:11:51;;;;;;;8.73;6.90;;;;;;;-1.46;78.16;100599.94;5041847;28;20049;-68
2021/12/26 10:14:19;;;;;;;9.95;7.13;;;;;;;-1.42;78.07;100598.06;5034071;28;20021;-68
2021/12/26 10:16:53;;;;;;;10.07;6.82;;;;;;;-1.38;78.04;100592.72;5045228;28;20076;-68
2021/12/26 10:19:19;;;;;;;11.93;7.60;;;;;;;-1.33;78.03;100585.63;5049411;28;20111;-68
2021/12/26 10:21:45;;;;;;;11.30;7.93;;;;;;;-1.29;78.24;100590.75;5049560;28;20112;-68
2021/12/26 10:24:23;;;;;;;11.48;7.35;;;;;;;-1.26;77.89;100585.44;5043368;28;20021;-68
2021/12/26 10:26:56;;;;;;;10.50;7.43;;;;;;;-1.22;78.35;100582.66;5033869;28;20028;-68
2021/12/26 10:29:28;;;;;;;12.52;8.07;;;;;;;-1.18;78.25;100583.44;5033122;28;20064;-68
2021/12/26 10:32:05;;;;;;;11.98;7.55;;;;;;;-1.13;78.46;100578.94;5037685;28;20056;-69
2021/12/26 10:34:34;;;;;;;11.60;7.90;;;;;;;-1.10;78.27;100570.97;5032396;28;20021;-69
2021/12/26 10:37:03;;;;;;;12.85;8.25;;;;;;;-1.04;78.78;100577.78;5042767;28;20481;-67
2021/12/26 10:39:32;;;;;;;12.65;8.43;;;;;;;-1.01;78.15;100570.69;5031815;28;21169;-67
2021/12/26 10:42:01;;;;;;;13.73;8.60;;;;;;;-0.98;78.25;100567.16;5040379;28;20029;-67
2021/12/26 10:44:29;;;;;;;11.25;7.88;;;;;;;-0.95;78.19;100569.63;5035490;28;20033;-67
2021/12/26 10:47:00;;;;;;;13.50;8.70;;;;;;;-0.93;78.41;100562.63;5045590;28;20021;-69
2021/12/26 10:49:36;;;;;;;14.95;8.52;;;;;;;-0.89;77.92;100560.78;5042971;28;20611;-67
2021/12/26 10:52:10;;;;;;;13.95;8.15;;;;;;;-0.85;78.72;100559.75;5048974;28;20030;-67
2021/12/26 10:54:41;;;;;;;11.98;8.68;;;;;;;-0.81;78.02;100556.16;5026867;28;20041;-68
2021/12/26 10:57:13;;;;;;;11.30;7.80;;;;;;;-0.80;78.36;100558.72;5034065;28;20028;-68
2021/12/26 10:59:43;;;;;;;15.38;8.50;;;;;;;-0.76;78.63;100556.84;5035306;28;20391;-68
2021/12/26 11:02:09;;;;;;;12.00;8.55;;;;;;;-0.74;78.16;100549.81;5040559;28;20055;-68
2021/12/26 11:04:37;;;;;;;14.13;8.52;;;;;;;-0.68;78.49;100544.38;5045916;28;20033;-68
2021/12/26 11:07:10;;;;;;;12.90;8.35;;;;;;;-0.64;78.56;100543.38;5052147;28;20036;-68
2021/12/26 11:09:37;;;;;;;13.68;8.45;;;;;;;-0.60;78.53;100547.59;5051876;28;20025;-68
2021/12/26 11:12:08;;;;;;;13.07;8.85;;;;;;;-0.58;78.40;100544.91;5037150;28;20107;-69
2021/12/26 11:15:00;;;;;;;16.00;8.90;;;;;;;-0.54;78.75;100541.28;5051424;28;20083;-69
2021/12/26 11:17:35;;;;;;;10.88;7.88;;;;;;;-0.49;77.98;100541.13;5048345;28;20053;-68
2021/12/26 11:20:02;;;;;;;13.25;8.20;;;;;;;-0.49;78.59;100539.38;5049985;28;20023;-69
2021/12/26 11:22:27;;;;;;;13.55;8.88;;;;;;;-0.46;78.59;100539.25;5046392;28;20039;-70
2021/12/26 11:24:54;;;;;;;13.25;8.50;;;;;;;-0.42;79.02;100534.78;5054474;28;20420;-69
2021/12/26 11:27:26;;;;;;;15.73;9.48;;;;;;;-0.37;78.46;100545.91;5050033;28;20083;-69
2021/12/26 11:29:53;;;;;;;15.10;10.20;;;;;;;-0.33;78.49;100529.25;5040850;28;20030;-69